createdAt,value
2019-06-07T00:02:10.682Z,13.77
2019-06-07T00:04:37.527Z,13.82
2019-06-07T00:07:04.209Z,13.92
2019-06-07T00:09:30.930Z,13.81
2019-06-07T00:11:57.616Z,13.84
2019-06-07T00:14:24.324Z,13.86
2019-06-07T00:16:51.044Z,13.78
2019-06-07T00:19:18.987Z,13.77
2019-06-07T00:22:15.916Z,13.72
2019-06-07T00:24:16.876Z,13.67
2019-06-07T00:26:57.650Z,13.68
2019-06-07T00:29:15.364Z,13.37
2019-06-07T00:31:41.034Z,13.19
2019-06-07T00:34:10.310Z,13.16
2019-06-07T00:36:36.351Z,13.24
2019-06-07T00:39:05.309Z,13.13
2019-06-07T00:41:32.002Z,13.03
2019-06-07T00:43:59.073Z,13.00
2019-06-07T00:46:25.766Z,13.16
2019-06-07T00:48:52.520Z,13.26
2019-06-07T00:51:21.273Z,13.25
2019-06-07T00:53:48.099Z,13.22
2019-06-07T00:56:16.316Z,13.22
2019-06-07T00:58:43.107Z,13.11
2019-06-07T01:01:09.823Z,13.12
2019-06-07T01:03:36.536Z,13.20
2019-06-07T01:06:03.271Z,13.25
2019-06-07T01:08:30.355Z,13.25
2019-06-07T01:10:57.170Z,13.17
2019-06-07T01:13:26.643Z,13.12
2019-06-07T01:15:52.505Z,13.13
2019-06-07T01:18:37.373Z,13.04
2019-06-07T01:20:47.781Z,12.87
2019-06-07T01:23:54.309Z,12.80
2019-06-07T01:25:43.485Z,12.69
2019-06-07T01:28:10.219Z,12.68
2019-06-07T01:30:36.919Z,12.69
2019-06-07T01:33:03.641Z,12.76
2019-06-07T01:35:30.346Z,12.78
2019-06-07T01:37:57.049Z,12.90
2019-06-07T01:40:29.815Z,12.91
2019-06-07T01:42:52.447Z,13.02
2019-06-07T01:45:19.551Z,12.89
2019-06-07T01:47:46.880Z,12.82
2019-06-07T01:50:13.612Z,12.77
2019-06-07T01:52:40.303Z,12.81
2019-06-07T01:55:07.437Z,12.82
2019-06-07T01:57:47.715Z,12.75
2019-06-07T02:00:04.514Z,12.82
2019-06-07T02:02:31.904Z,12.72
2019-06-07T02:04:59.214Z,12.82
2019-06-07T02:07:30.350Z,12.76
2019-06-07T02:09:54.519Z,12.68
2019-06-07T02:12:27.948Z,12.57
2019-06-07T02:14:49.956Z,12.47
2019-06-07T02:17:17.160Z,12.38
2019-06-07T02:19:43.866Z,12.35
2019-06-07T02:22:10.567Z,12.32
2019-06-07T02:24:37.279Z,12.28
2019-06-07T02:27:03.992Z,12.33
2019-06-07T02:29:33.032Z,12.10
2019-06-07T02:31:59.300Z,12.10
2019-06-07T02:34:28.105Z,12.02
2019-06-07T02:36:54.604Z,12.05
2019-06-07T02:39:25.247Z,12.17
2019-06-07T02:41:49.924Z,12.20
2019-06-07T02:44:16.610Z,12.18
2019-06-07T02:46:48.926Z,12.16
2019-06-07T02:49:12.012Z,12.07
2019-06-07T02:51:41.345Z,12.01
2019-06-07T02:54:08.405Z,12.00
2019-06-07T02:56:48.860Z,12.07
2019-06-07T02:59:03.768Z,12.02
2019-06-07T03:01:32.439Z,12.07
2019-06-07T03:03:59.791Z,12.23
2019-06-07T03:06:29.865Z,12.28
2019-06-07T03:08:55.406Z,12.21
2019-06-07T03:11:22.103Z,12.24
2019-06-07T03:13:48.792Z,12.25
2019-06-07T03:16:26.195Z,12.22
2019-06-07T03:19:02.779Z,12.19
2019-06-07T03:21:31.322Z,12.18
2019-06-07T03:23:58.531Z,12.23
2019-06-07T03:26:25.334Z,12.14
2019-06-07T03:28:53.192Z,12.09
2019-06-07T03:31:19.884Z,12.12
2019-06-07T03:33:46.596Z,12.27
2019-06-07T03:36:23.703Z,12.18
2019-06-07T03:38:41.895Z,11.98
2019-06-07T03:41:08.608Z,11.93
2019-06-07T03:43:38.685Z,12.04
2019-06-07T03:46:04.257Z,12.00
2019-06-07T03:48:32.959Z,11.99
2019-06-07T03:51:04.658Z,12.04
2019-06-07T03:53:29.689Z,12.06
2019-06-07T03:55:56.828Z,12.05
2019-06-07T03:58:34.674Z,12.00
2019-06-07T04:00:52.505Z,12.04
2019-06-07T04:03:33.751Z,12.05
2019-06-07T04:05:48.935Z,11.98
2019-06-07T04:08:15.717Z,11.93
2019-06-07T04:10:58.435Z,12.00
2019-06-07T04:13:11.172Z,12.05
2019-06-07T04:15:40.940Z,12.08
2019-06-07T04:18:06.565Z,12.14
2019-06-07T04:20:35.725Z,12.19
2019-06-07T04:23:01.944Z,12.20
2019-06-07T04:25:29.087Z,12.25
2019-06-07T04:27:57.247Z,12.32
2019-06-07T04:30:41.796Z,12.30
2019-06-07T04:33:09.845Z,12.29
2019-06-07T04:35:40.000Z,12.17
2019-06-07T04:38:06.731Z,12.14
2019-06-07T04:40:34.346Z,12.21
2019-06-07T04:43:02.069Z,12.30
2019-06-07T04:45:40.046Z,12.27
2019-06-07T04:47:58.167Z,12.31
2019-06-07T04:50:24.867Z,12.40
2019-06-07T04:52:51.863Z,12.49
2019-06-07T04:55:18.584Z,12.51
2019-06-07T04:57:45.444Z,12.52
2019-06-07T05:00:46.175Z,12.61
2019-06-07T05:02:43.232Z,12.62
2019-06-07T05:05:09.518Z,12.71
2019-06-07T05:07:37.892Z,12.74
2019-06-07T05:10:04.842Z,12.78
2019-06-07T05:12:32.706Z,12.85
2019-06-07T05:15:00.152Z,13.00
2019-06-07T05:17:26.866Z,12.98
2019-06-07T05:19:53.557Z,13.03
2019-06-07T05:22:20.254Z,13.06
2019-06-07T05:24:47.270Z,12.97
2019-06-07T05:27:14.063Z,12.99
2019-06-07T05:29:43.797Z,13.01
2019-06-07T05:32:09.518Z,13.04
2019-06-07T05:34:36.941Z,13.25
2019-06-07T05:37:11.759Z,13.30
2019-06-07T05:39:36.857Z,13.44
2019-06-07T05:42:03.141Z,13.49
2019-06-07T05:44:29.829Z,13.50
2019-06-07T05:46:56.521Z,13.71
2019-06-07T05:49:23.256Z,13.91
2019-06-07T05:51:49.961Z,13.96
2019-06-07T05:54:16.697Z,14.00
2019-06-07T05:56:45.451Z,14.06
2019-06-07T05:59:12.069Z,14.16
2019-06-07T06:01:47.668Z,14.17
2019-06-07T06:04:07.413Z,14.34
2019-06-07T06:06:34.173Z,14.45
2019-06-07T06:09:13.315Z,14.60
2019-06-07T06:11:46.800Z,14.75
2019-06-07T06:14:07.435Z,14.81
2019-06-07T06:16:26.955Z,14.87
2019-06-07T06:18:53.722Z,14.98
2019-06-07T06:21:20.722Z,15.10
2019-06-07T06:23:48.838Z,15.16
2019-06-07T06:26:16.551Z,15.33
2019-06-07T06:28:45.271Z,15.52
2019-06-07T06:31:11.888Z,15.67
2019-06-07T06:33:39.616Z,15.70
2019-06-07T06:36:06.591Z,15.79
2019-06-07T06:38:33.653Z,15.93
2019-06-07T06:41:15.158Z,16.04
2019-06-07T06:43:29.995Z,16.14
2019-06-07T06:45:56.817Z,16.24
2019-06-07T06:48:23.579Z,16.23
2019-06-07T06:50:52.532Z,16.39
2019-06-07T06:53:19.116Z,16.52
2019-06-07T06:55:48.451Z,16.67
2019-06-07T06:58:15.067Z,16.74
2019-06-07T07:00:58.761Z,16.87
2019-06-07T07:03:56.611Z,16.82
2019-06-07T07:05:48.658Z,16.88
2019-06-07T07:08:13.462Z,16.98
2019-06-07T07:10:42.767Z,17.07
2019-06-07T07:13:10.076Z,17.02
2019-06-07T07:15:36.828Z,17.17
2019-06-07T07:18:08.773Z,17.32
2019-06-07T07:20:32.599Z,17.45
2019-06-07T07:22:59.418Z,17.61
2019-06-07T07:25:26.170Z,17.77
2019-06-07T07:27:55.286Z,17.77
2019-06-07T07:30:37.652Z,17.89
2019-06-07T07:33:06.443Z,17.89
2019-06-07T07:35:33.390Z,17.95
2019-06-07T07:38:00.310Z,17.98
2019-06-07T07:42:56.766Z,18.15
2019-06-07T07:45:23.757Z,18.33
2019-06-07T07:48:08.187Z,18.42
2019-06-07T07:50:20.630Z,18.52
2019-06-07T07:52:49.074Z,18.60
2019-06-07T07:55:15.947Z,18.65
2019-06-07T07:57:42.708Z,18.72
2019-06-07T08:00:48.623Z,18.88
2019-06-07T08:02:38.038Z,18.90
2019-06-07T08:07:33.906Z,19.10
2019-06-07T08:10:03.884Z,19.17
2019-06-07T08:12:29.772Z,19.29
2019-06-07T08:15:00.346Z,19.40
2019-06-07T08:17:25.138Z,19.52
2019-06-07T08:19:54.309Z,19.67
2019-06-07T08:22:20.749Z,19.76
2019-06-07T08:24:50.502Z,19.79
2019-06-07T08:27:26.077Z,19.77
2019-06-07T08:30:00.595Z,19.84
2019-06-07T08:32:14.048Z,20.00
2019-06-07T08:34:40.860Z,20.16
2019-06-07T08:37:07.555Z,20.21
2019-06-07T08:39:34.588Z,20.23
2019-06-07T08:42:15.230Z,20.29
2019-06-07T08:44:32.656Z,20.53
2019-06-07T08:47:16.731Z,20.55
2019-06-07T08:49:28.441Z,20.58
2019-06-07T08:52:04.572Z,20.71
2019-06-07T08:54:23.853Z,20.89
2019-06-07T08:56:53.701Z,20.84
2019-06-07T08:59:21.094Z,20.97
2019-06-07T09:01:49.867Z,21.14
2019-06-07T09:04:16.591Z,21.28
2019-06-07T09:09:12.244Z,21.14
2019-06-07T09:11:38.970Z,21.13
2019-06-07T09:14:09.020Z,21.25
2019-06-07T09:16:34.421Z,21.40
2019-06-07T09:19:06.717Z,21.50
2019-06-07T09:21:30.078Z,21.66
2019-06-07T09:24:00.320Z,21.80
2019-06-07T09:26:25.664Z,21.84
2019-06-07T09:28:52.353Z,21.93
2019-06-07T09:31:19.092Z,21.91
2019-06-07T09:33:45.814Z,22.06
2019-06-07T09:36:13.523Z,22.19
2019-06-07T09:38:40.738Z,22.30
2019-06-07T09:41:08.110Z,22.36
2019-06-07T09:46:11.837Z,22.60
2019-06-07T09:49:10.134Z,22.66
2019-06-07T09:51:09.547Z,22.75
2019-06-07T09:53:31.152Z,22.77
2019-06-07T09:56:02.921Z,22.82
2019-06-07T10:00:55.416Z,22.94
2019-06-07T10:03:24.324Z,23.00
2019-06-07T10:05:50.995Z,23.04
2019-06-07T10:09:26.223Z,23.01
2019-06-07T10:10:46.389Z,23.20
2019-06-07T10:13:13.066Z,23.18
2019-06-07T10:15:39.777Z,23.33
2019-06-07T10:18:07.126Z,23.50
2019-06-07T10:20:34.024Z,23.69
2019-06-07T10:23:01.629Z,23.81
2019-06-07T10:25:28.692Z,23.84
2019-06-07T10:27:55.779Z,23.90
2019-06-07T10:30:22.602Z,23.98
2019-06-07T10:32:52.140Z,24.09
2019-06-07T10:35:17.944Z,24.17
2019-06-07T10:37:44.991Z,24.16
2019-06-07T10:40:11.749Z,24.10
2019-06-07T10:42:38.451Z,24.28
2019-06-07T10:45:06.605Z,24.32
2019-06-07T10:47:34.103Z,24.41
2019-06-07T10:50:01.910Z,24.60
2019-06-07T10:52:28.799Z,24.79
2019-06-07T10:54:55.481Z,24.75
2019-06-07T10:57:22.252Z,24.74
2019-06-07T10:59:48.982Z,24.63
2019-06-07T11:02:15.655Z,24.67
2019-06-07T11:04:42.691Z,24.80
2019-06-07T11:07:10.086Z,25.02
2019-06-07T11:09:37.208Z,25.20
2019-06-07T11:12:04.368Z,25.39
2019-06-07T11:14:31.322Z,25.46
2019-06-07T11:16:58.076Z,25.44
2019-06-07T11:19:24.785Z,25.52
2019-06-07T11:21:51.620Z,25.69
2019-06-07T11:24:23.772Z,25.80
2019-06-07T11:26:47.049Z,25.81
2019-06-07T11:29:15.053Z,25.66
2019-06-07T11:31:41.938Z,25.72
2019-06-07T11:34:10.237Z,25.85
2019-06-07T11:36:37.522Z,25.98
2019-06-07T11:39:06.496Z,26.00
2019-06-07T11:41:33.219Z,26.12
2019-06-07T11:44:00.094Z,26.44
2019-06-07T11:46:27.005Z,26.61
2019-06-07T11:48:53.724Z,26.58
2019-06-07T11:51:20.548Z,26.61
2019-06-07T11:53:47.734Z,26.75
2019-06-07T11:56:16.002Z,26.85
2019-06-07T11:58:42.915Z,27.00
2019-06-07T12:01:09.778Z,27.16
2019-06-07T12:03:37.120Z,27.15
2019-06-07T12:06:03.836Z,27.28
2019-06-07T12:08:30.652Z,27.45
2019-06-07T12:10:57.375Z,27.50
2019-06-07T12:13:26.865Z,27.55
2019-06-07T12:15:54.236Z,27.61
2019-06-07T12:18:20.991Z,27.60
2019-06-07T12:20:47.687Z,27.68
2019-06-07T12:23:15.978Z,27.58
2019-06-07T12:25:43.375Z,27.81
2019-06-07T12:28:10.850Z,28.08
2019-06-07T12:30:38.007Z,28.01
2019-06-07T12:33:05.031Z,27.91
2019-06-07T12:35:32.175Z,28.13
2019-06-07T12:37:59.293Z,28.20
2019-06-07T12:40:31.900Z,28.31
2019-06-07T12:42:55.963Z,28.45
2019-06-07T12:45:43.761Z,28.51
2019-06-07T12:47:52.329Z,28.69
2019-06-07T12:50:21.670Z,28.82
2019-06-07T12:52:49.762Z,29.18
2019-06-07T12:55:18.112Z,29.41
2019-06-07T12:57:46.532Z,29.47
2019-06-07T13:00:14.284Z,29.23
2019-06-07T13:02:41.547Z,29.42
2019-06-07T13:05:08.273Z,29.57
2019-06-07T13:07:35.051Z,29.73
2019-06-07T13:10:01.799Z,29.85
2019-06-07T13:12:28.587Z,29.62
2019-06-07T13:14:55.509Z,29.63
2019-06-07T13:17:22.345Z,29.60
2019-06-07T13:19:49.314Z,29.62
2019-06-07T13:22:16.215Z,29.80
2019-06-07T13:24:42.889Z,29.99
2019-06-07T13:27:09.749Z,30.13
2019-06-07T13:29:36.790Z,30.38
2019-06-07T13:32:03.535Z,30.70
2019-06-07T13:34:30.222Z,30.79
2019-06-07T13:36:56.908Z,30.60
2019-06-07T13:39:27.535Z,30.65
2019-06-07T13:41:52.436Z,30.77
2019-06-07T13:44:20.865Z,30.87
2019-06-07T13:46:47.855Z,31.06
2019-06-07T13:49:14.579Z,30.83
2019-06-07T13:51:41.461Z,30.78
2019-06-07T13:54:08.170Z,30.95
2019-06-07T13:56:34.893Z,31.12
2019-06-07T13:59:01.644Z,31.16
2019-06-07T14:01:29.014Z,31.35
2019-06-07T14:03:56.172Z,31.50
2019-06-07T14:06:23.449Z,31.64
2019-06-07T14:08:50.301Z,31.64
2019-06-07T14:11:17.531Z,31.79
2019-06-07T14:13:44.213Z,31.45
2019-06-07T14:16:11.093Z,31.31
2019-06-07T14:18:37.771Z,31.03
2019-06-07T14:21:04.482Z,30.54
2019-06-07T14:23:47.453Z,30.45
2019-06-07T14:26:00.577Z,30.24
2019-06-07T14:28:31.832Z,30.09
2019-06-07T14:30:56.557Z,29.74
2019-06-07T14:33:26.131Z,29.44
2019-06-07T14:35:51.919Z,29.32
2019-06-07T14:38:18.682Z,29.15
2019-06-07T14:40:47.818Z,28.85
2019-06-07T14:43:14.783Z,28.91
2019-06-07T14:45:41.984Z,28.53
2019-06-07T14:48:08.727Z,28.38
2019-06-07T14:50:35.467Z,28.19
2019-06-07T14:53:02.348Z,27.90
2019-06-07T14:55:32.964Z,27.60
2019-06-07T14:58:00.250Z,27.36
2019-06-07T15:00:38.974Z,27.13
2019-06-07T15:03:05.732Z,27.04
2019-06-07T15:05:32.868Z,26.97
2019-06-07T15:07:59.666Z,26.83
2019-06-07T15:10:26.697Z,26.71
2019-06-07T15:12:53.810Z,26.61
2019-06-07T15:15:20.649Z,26.32
2019-06-07T15:17:47.477Z,26.40
2019-06-07T15:20:14.317Z,26.49
2019-06-07T15:22:41.401Z,26.51
2019-06-07T15:25:08.133Z,26.55
2019-06-07T15:27:35.343Z,26.69
2019-06-07T15:30:10.052Z,26.86
2019-06-07T15:32:32.683Z,26.86
2019-06-07T15:34:59.766Z,27.01
2019-06-07T15:37:26.548Z,27.13
2019-06-07T15:39:53.282Z,27.24
2019-06-07T15:42:20.126Z,27.41
2019-06-07T15:44:46.831Z,27.96
2019-06-07T15:47:13.688Z,28.21
2019-06-07T15:49:40.440Z,27.65
2019-06-07T15:52:07.155Z,26.44
2019-06-07T15:54:34.390Z,26.06
2019-06-07T15:57:01.213Z,25.34
2019-06-07T15:59:28.037Z,24.65
2019-06-07T16:01:54.869Z,23.85
2019-06-07T16:04:21.590Z,23.71
2019-06-07T16:06:48.328Z,23.52
2019-06-07T16:09:15.035Z,23.22
2019-06-07T16:11:43.470Z,22.63
2019-06-07T16:14:10.542Z,22.28
2019-06-07T16:16:37.282Z,21.84
2019-06-07T16:19:05.669Z,21.86
2019-06-07T16:21:35.270Z,21.81
2019-06-07T16:24:02.152Z,21.73
2019-06-07T16:26:28.865Z,21.27
2019-06-07T16:28:57.334Z,21.18
2019-06-07T16:31:25.410Z,20.87
2019-06-07T16:33:54.647Z,20.93
2019-06-07T16:36:21.456Z,20.70
2019-06-07T16:38:49.387Z,20.57
2019-06-07T16:41:16.092Z,20.42
2019-06-07T16:43:44.801Z,20.11
2019-06-07T16:46:11.811Z,20.01
2019-06-07T16:48:40.868Z,19.90
2019-06-07T16:51:07.869Z,19.96
2019-06-07T16:53:34.588Z,19.85
2019-06-07T16:56:01.326Z,19.88
2019-06-07T16:58:28.023Z,19.80
2019-06-07T17:00:54.808Z,19.48
2019-06-07T17:03:21.565Z,19.11
2019-06-07T17:05:50.481Z,18.88
2019-06-07T17:08:17.083Z,18.74
2019-06-07T17:10:44.248Z,18.80
2019-06-07T17:13:32.074Z,18.77
2019-06-07T17:15:45.265Z,18.88
2019-06-07T17:18:12.010Z,18.80
2019-06-07T17:20:39.125Z,18.99
2019-06-07T17:23:05.802Z,19.15
2019-06-07T17:25:32.555Z,19.03
2019-06-07T17:27:59.286Z,19.12
2019-06-07T17:30:25.979Z,18.99
2019-06-07T17:32:58.924Z,18.90
2019-06-07T17:35:21.770Z,18.90
2019-06-07T17:37:49.688Z,19.08
2019-06-07T17:40:17.208Z,18.99
2019-06-07T17:42:44.827Z,18.93
2019-06-07T17:45:11.595Z,18.94
2019-06-07T17:47:38.296Z,18.85
2019-06-07T17:50:05.238Z,18.74
2019-06-07T17:52:32.061Z,18.71
2019-06-07T17:54:58.784Z,18.66
2019-06-07T17:57:25.801Z,18.36
2019-06-07T18:00:27.068Z,18.45
2019-06-07T18:02:31.860Z,18.51
2019-06-07T18:04:58.577Z,18.50
2019-06-07T18:07:25.291Z,18.53
2019-06-07T18:09:53.658Z,18.36
2019-06-07T18:12:20.749Z,18.30
2019-06-07T18:14:47.970Z,18.43
2019-06-07T18:17:14.774Z,18.27
2019-06-07T18:19:41.510Z,17.92
2019-06-07T18:22:08.237Z,17.94
2019-06-07T18:24:35.045Z,17.78
2019-06-07T18:27:01.790Z,17.66
2019-06-07T18:29:28.518Z,17.73
2019-06-07T18:31:55.390Z,17.76
2019-06-07T18:34:23.654Z,17.80
2019-06-07T18:36:51.076Z,17.73
2019-06-07T18:39:21.511Z,17.77
2019-06-07T18:41:49.070Z,17.66
2019-06-07T18:44:21.750Z,17.56
2019-06-07T18:46:46.026Z,17.63
2019-06-07T18:49:12.982Z,17.65
2019-06-07T18:51:39.704Z,17.43
2019-06-07T18:54:06.452Z,17.40
2019-06-07T18:56:33.656Z,17.35
2019-06-07T18:59:02.357Z,17.42
2019-06-07T19:01:29.074Z,17.26
2019-06-07T19:03:56.213Z,17.60
2019-06-07T19:06:23.671Z,17.44
2019-06-07T19:08:54.750Z,17.36
2019-06-07T19:11:19.596Z,17.14
2019-06-07T19:13:46.880Z,17.23
2019-06-07T19:16:13.615Z,17.29
2019-06-07T19:18:40.506Z,17.08
2019-06-07T19:21:07.230Z,16.96
2019-06-07T19:23:34.553Z,16.97
2019-06-07T19:26:01.322Z,16.88
2019-06-07T19:28:28.098Z,16.95
2019-06-07T19:30:55.144Z,16.83
2019-06-07T19:33:22.190Z,16.79
2019-06-07T19:35:48.947Z,16.79
2019-06-07T19:38:17.106Z,16.83
2019-06-07T19:40:44.204Z,16.77
2019-06-07T19:43:10.943Z,16.76
2019-06-07T19:45:37.955Z,16.75
2019-06-07T19:48:04.708Z,16.75
2019-06-07T19:50:31.838Z,16.82
2019-06-07T19:52:59.212Z,16.78
2019-06-07T19:55:27.596Z,16.70
2019-06-07T19:57:59.888Z,16.58
2019-06-07T20:00:26.638Z,16.39
2019-06-07T20:02:53.701Z,16.35
2019-06-07T20:05:20.511Z,16.52
2019-06-07T20:07:47.241Z,16.59
2019-06-07T20:10:14.026Z,16.67
2019-06-07T20:12:40.792Z,16.62
2019-06-07T20:15:27.027Z,16.53
2019-06-07T20:17:36.158Z,16.48
2019-06-07T20:20:04.648Z,16.37
2019-06-07T20:22:32.028Z,16.28
2019-06-07T20:24:58.871Z,16.22
2019-06-07T20:27:25.595Z,16.16
2019-06-07T20:29:52.342Z,16.04
2019-06-07T20:32:19.080Z,16.02
2019-06-07T20:34:45.799Z,15.99
2019-06-07T20:37:12.554Z,16.08
2019-06-07T20:39:39.292Z,16.08
2019-06-07T20:42:06.116Z,16.00
2019-06-07T20:44:32.844Z,16.07
2019-06-07T20:46:59.984Z,15.88
2019-06-07T20:49:26.911Z,16.04
2019-06-07T20:51:53.638Z,15.88
2019-06-07T20:54:20.399Z,15.82
2019-06-07T20:56:47.208Z,15.92
2019-06-07T20:59:13.961Z,16.07
2019-06-07T21:01:42.820Z,16.10
2019-06-07T21:04:09.763Z,16.10
2019-06-07T21:06:36.480Z,16.01
2019-06-07T21:09:06.003Z,16.12
2019-06-07T21:11:32.730Z,16.25
2019-06-07T21:14:02.028Z,16.30
2019-06-07T21:16:28.810Z,16.26
2019-06-07T21:18:55.552Z,16.18
2019-06-07T21:21:22.244Z,16.18
2019-06-07T21:23:49.035Z,16.20
2019-06-07T21:26:15.763Z,16.17
2019-06-07T21:28:42.586Z,16.07
2019-06-07T21:31:10.478Z,16.06
2019-06-07T21:33:39.713Z,16.12
2019-06-07T21:36:07.792Z,16.16
2019-06-07T21:38:35.078Z,16.18
2019-06-07T21:41:02.163Z,16.23
2019-06-07T21:43:29.042Z,16.17
2019-06-07T21:46:05.400Z,16.15
2019-06-07T21:48:24.901Z,16.13
2019-06-07T21:50:51.947Z,16.16
2019-06-07T21:53:18.780Z,16.05
2019-06-07T21:55:52.594Z,16.23
2019-06-07T21:58:19.738Z,16.18
2019-06-07T22:01:12.086Z,16.22
2019-06-07T22:03:39.172Z,16.02
2019-06-07T22:06:07.616Z,15.96
2019-06-07T22:08:34.636Z,16.01
2019-06-07T22:11:08.189Z,16.09
2019-06-07T22:13:35.212Z,16.20
2019-06-07T22:16:02.433Z,16.16
2019-06-07T22:18:29.286Z,16.17
2019-06-07T22:20:55.999Z,16.23
2019-06-07T22:23:22.736Z,16.28
2019-06-07T22:25:49.833Z,16.26
2019-06-07T22:28:16.672Z,16.26
2019-06-07T22:30:43.415Z,16.38
2019-06-07T22:33:10.639Z,16.37
2019-06-07T22:35:37.554Z,16.30
2019-06-07T22:38:05.958Z,16.35
2019-06-07T22:40:33.064Z,16.39
2019-06-07T22:43:00.003Z,16.44
2019-06-07T22:45:29.817Z,16.39
2019-06-07T22:47:56.539Z,16.42
2019-06-07T22:50:23.259Z,16.40
2019-06-07T22:52:49.981Z,16.50
2019-06-07T22:55:16.670Z,16.47
2019-06-07T22:57:56.422Z,16.39
2019-06-07T23:00:23.843Z,16.51
2019-06-07T23:02:50.590Z,16.50
2019-06-07T23:05:17.419Z,16.58
2019-06-07T23:07:44.109Z,16.58
2019-06-07T23:10:11.310Z,16.62
2019-06-07T23:12:38.169Z,16.58
2019-06-07T23:15:05.201Z,16.53
2019-06-07T23:17:31.928Z,16.51
2019-06-07T23:19:58.631Z,16.46
2019-06-07T23:22:25.466Z,16.47
2019-06-07T23:24:52.200Z,16.47
2019-06-07T23:27:26.979Z,16.54
2019-06-07T23:30:08.288Z,16.58
2019-06-07T23:32:38.774Z,16.57
2019-06-07T23:37:53.827Z,16.56
2019-06-07T23:40:21.570Z,16.50
2019-06-07T23:42:48.427Z,16.53
2019-06-07T23:45:15.526Z,16.62
2019-06-07T23:47:42.373Z,16.61
2019-06-07T23:50:09.511Z,16.54
2019-06-07T23:52:36.224Z,16.55
2019-06-07T23:55:03.405Z,16.54
2019-06-07T23:57:30.095Z,16.65
2019-06-07T23:59:56.797Z,16.69
